PWSweather.com
Personal Weather Stations
Station Observations
GEELONGWX1
Bell Post Hill, GeelongAU

Bell Post HillGeelongAU

Lat: -38.101, Lon: 144.326

Elevation: 204

Station Type: Davis Vantage Pro2

http://www.geelongweather.com

High Low Average
Temperature 73.1°F22.8°F 50.7°F10.4°F 61.1°F16.2°F
Dew Point 56.0°F13.3°F 42.0°F5.6°F 49.6°F9.8°F
Winds 10.4 mph S16.7 mph S Calm Calm 2.9 mph 4.7 mph
Wind Gusts 18.4 mph29.6 mph -- 5.3 mph8.5 mph
Humidity 82% 47% 67%
Pressure 30.10 in1019.30 in 29.83 in1010.20 in -
Precipitation 0.00 in0.00 in - -
Hour Temp Dew Point Humidity Winds Wind Gusts Pressure Precip Precip Rate Daily Precip Total
12:00 AM 55.5°F13.1°C 49.4°F9.7°C 80% Calm Calm -- 29.85 in1010.8 mb - 0.00 in0.0 mm 0.00 in0.0 mm
12:10 AM 55.7°F13.2°C 50.0°F10.0°C 81% Calm Calm -- 29.85 in1010.8 mb - 0.00 in0.0 mm 0.00 in0.0 mm
12:20 AM 55.9°F13.3°C 50.2°F10.1°C 81% Calm Calm -- 29.85 in1010.8 mb - 0.00 in0.0 mm 0.00 in0.0 mm
12:30 AM 56.0°F13.3°C 50.3°F10.2°C 81% Calm Calm -- 29.85 in1010.8 mb - 0.00 in0.0 mm 0.00 in0.0 mm
12:40 AM 56.0°F13.3°C 50.3°F10.2°C 81% Calm Calm -- 29.85 in1010.8 mb - 0.00 in0.0 mm 0.00 in0.0 mm
12:50 AM 56.1°F13.4°C 50.7°F10.4°C 82% Calm Calm -- 29.85 in1010.8 mb - 0.00 in0.0 mm 0.00 in0.0 mm
01:00 AM 56.1°F13.4°C 50.7°F10.4°C 82% Calm Calm -- 29.85 in1010.8 mb - 0.00 in0.0 mm 0.00 in0.0 mm
01:10 AM 56.2°F13.4°C 50.8°F10.4°C 82% Calm Calm -- 29.84 in1010.5 mb - 0.00 in0.0 mm 0.00 in0.0 mm
01:20 AM 56.4°F13.6°C 50.9°F10.5°C 82% Calm Calm -- 29.84 in1010.5 mb - 0.00 in0.0 mm 0.00 in0.0 mm
01:30 AM 56.4°F13.6°C 51.0°F10.6°C 82% Calm Calm -- 29.84 in1010.5 mb - 0.00 in0.0 mm 0.00 in0.0 mm
01:40 AM 56.5°F13.6°C 51.1°F10.6°C 82% Calm Calm -- 29.84 in1010.5 mb - 0.00 in0.0 mm 0.00 in0.0 mm
01:50 AM 56.5°F13.6°C 51.1°F10.6°C 82% Calm Calm -- 29.84 in1010.5 mb - 0.00 in0.0 mm 0.00 in0.0 mm
02:00 AM 56.5°F13.6°C 51.1°F10.6°C 82% Calm Calm -- 29.84 in1010.5 mb - 0.00 in0.0 mm 0.00 in0.0 mm
02:10 AM 56.6°F13.7°C 51.2°F10.7°C 82% Calm Calm -- 29.84 in1010.5 mb - 0.00 in0.0 mm 0.00 in0.0 mm
02:20 AM 56.6°F13.7°C 51.2°F10.7°C 82% Calm Calm -- 29.83 in1010.2 mb - 0.00 in0.0 mm 0.00 in0.0 mm
02:30 AM 56.6°F13.7°C 51.2°F10.7°C 82% Calm Calm -- 29.84 in1010.5 mb - 0.00 in0.0 mm 0.00 in0.0 mm
02:40 AM 56.6°F13.7°C 50.8°F10.4°C 81% Calm Calm -- 29.84 in1010.5 mb - 0.00 in0.0 mm 0.00 in0.0 mm
02:50 AM 56.6°F13.7°C 50.8°F10.4°C 81% Calm Calm -- 29.84 in1010.5 mb - 0.00 in0.0 mm 0.00 in0.0 mm
03:00 AM 56.6°F13.7°C 50.8°F10.4°C 81% Calm Calm -- 29.84 in1010.5 mb - 0.00 in0.0 mm 0.00 in0.0 mm
03:10 AM 56.6°F13.7°C 50.8°F10.4°C 81% Calm Calm -- 29.84 in1010.5 mb - 0.00 in0.0 mm 0.00 in0.0 mm
03:20 AM 56.6°F13.7°C 50.9°F10.5°C 81% Calm Calm -- 29.84 in1010.5 mb - 0.00 in0.0 mm 0.00 in0.0 mm
03:30 AM 56.7°F13.7°C 50.9°F10.5°C 81% Calm Calm -- 29.84 in1010.5 mb - 0.00 in0.0 mm 0.00 in0.0 mm
03:40 AM 56.7°F13.7°C 51.0°F10.6°C 81% Calm Calm -- 29.84 in1010.5 mb - 0.00 in0.0 mm 0.00 in0.0 mm
03:50 AM 56.8°F13.8°C 51.0°F10.6°C 81% Calm Calm -- 29.85 in1010.8 mb - 0.00 in0.0 mm 0.00 in0.0 mm
04:00 AM 56.8°F13.8°C 51.0°F10.6°C 81% Calm Calm -- 29.85 in1010.8 mb - 0.00 in0.0 mm 0.00 in0.0 mm
04:10 AM 56.8°F13.8°C 51.0°F10.6°C 81% Calm Calm -- 29.85 in1010.8 mb - 0.00 in0.0 mm 0.00 in0.0 mm
04:20 AM 56.8°F13.8°C 51.0°F10.6°C 81% Calm Calm -- 29.85 in1010.8 mb - 0.00 in0.0 mm 0.00 in0.0 mm
04:30 AM 56.8°F13.8°C 51.0°F10.6°C 81% Calm Calm -- 29.86 in1011.2 mb - 0.00 in0.0 mm 0.00 in0.0 mm
04:40 AM 56.8°F13.8°C 51.0°F10.6°C 81% Calm Calm -- 29.86 in1011.2 mb - 0.00 in0.0 mm 0.00 in0.0 mm
04:50 AM 56.8°F13.8°C 51.0°F10.6°C 81% Calm Calm -- 29.86 in1011.2 mb - 0.00 in0.0 mm 0.00 in0.0 mm
05:00 AM 56.8°F13.8°C 51.0°F10.6°C 81% Calm Calm -- 29.87 in1011.5 mb - 0.00 in0.0 mm 0.00 in0.0 mm
05:10 AM 56.6°F13.7°C 50.9°F10.5°C 81% Calm Calm -- 29.87 in1011.5 mb - 0.00 in0.0 mm 0.00 in0.0 mm
05:20 AM 56.5°F13.6°C 50.7°F10.4°C 81% Calm Calm -- 29.88 in1011.9 mb - 0.00 in0.0 mm 0.00 in0.0 mm
05:30 AM 56.3°F13.5°C 50.5°F10.3°C 81% Calm Calm 2.3 mph3.7 kmh 29.88 in1011.9 mb - 0.00 in0.0 mm 0.00 in0.0 mm
05:40 AM 56.2°F13.4°C 50.4°F10.2°C 81% 1.2 mph SSW1.9 kmh SSW -- 29.88 in1011.9 mb - 0.00 in0.0 mm 0.00 in0.0 mm
05:50 AM 56.3°F13.5°C 50.5°F10.3°C 81% Calm Calm 1.2 mph1.9 kmh 29.89 in1012.2 mb - 0.00 in0.0 mm 0.00 in0.0 mm
06:00 AM 56.4°F13.6°C 50.6°F10.3°C 81% 1.2 mph S1.9 kmh S -- 29.89 in1012.2 mb - 0.00 in0.0 mm 0.00 in0.0 mm
06:10 AM 56.6°F13.7°C 50.8°F10.4°C 81% 3.5 mph SW5.6 kmh SW 4.6 mph7.4 kmh 29.91 in1012.9 mb - 0.00 in0.0 mm 0.00 in0.0 mm
06:20 AM 56.9°F13.8°C 51.1°F10.6°C 81% 3.5 mph SSW5.6 kmh SSW 4.6 mph7.4 kmh 29.91 in1012.9 mb - 0.00 in0.0 mm 0.00 in0.0 mm
06:30 AM 57.3°F14.1°C 51.2°F10.7°C 80% 2.3 mph S3.7 kmh S 5.8 mph9.3 kmh 29.91 in1012.9 mb - 0.00 in0.0 mm 0.00 in0.0 mm
06:40 AM 57.7°F14.3°C 51.6°F10.9°C 80% Calm Calm 6.9 mph11.1 kmh 29.92 in1013.2 mb - 0.00 in0.0 mm 0.00 in0.0 mm
06:50 AM 58.3°F14.6°C 52.1°F11.2°C 80% Calm Calm -- 29.92 in1013.2 mb - 0.00 in0.0 mm 0.00 in0.0 mm
07:00 AM 59.5°F15.3°C 52.3°F11.3°C 77% 1.2 mph SW1.9 kmh SW 6.9 mph11.1 kmh 29.92 in1013.2 mb - 0.00 in0.0 mm 0.00 in0.0 mm
07:10 AM 60.0°F15.6°C 52.0°F11.1°C 75% 3.5 mph SSW5.6 kmh SSW 6.9 mph11.1 kmh 29.92 in1013.2 mb - 0.00 in0.0 mm 0.00 in0.0 mm
07:20 AM 60.6°F15.9°C 51.9°F11.1°C 73% 3.5 mph SSW5.6 kmh SSW 5.8 mph9.3 kmh 29.92 in1013.2 mb - 0.00 in0.0 mm 0.00 in0.0 mm
07:30 AM 61.0°F16.1°C 51.6°F10.9°C 71% 2.3 mph SSW3.7 kmh SSW 8.1 mph13.0 kmh 29.92 in1013.2 mb - 0.00 in0.0 mm 0.00 in0.0 mm
07:40 AM 61.9°F16.6°C 52.4°F11.3°C 71% Calm Calm 3.5 mph5.6 kmh 29.92 in1013.2 mb - 0.00 in0.0 mm 0.00 in0.0 mm
07:50 AM 62.3°F16.8°C 52.0°F11.1°C 69% 3.5 mph SW5.6 kmh SW 9.2 mph14.8 kmh 29.93 in1013.5 mb - 0.00 in0.0 mm 0.00 in0.0 mm
08:00 AM 63.1°F17.3°C 51.9°F11.1°C 67% 2.3 mph SSW3.7 kmh SSW 6.9 mph11.1 kmh 29.93 in1013.5 mb - 0.00 in0.0 mm 0.00 in0.0 mm
08:10 AM 64.5°F18.1°C 52.5°F11.4°C 65% Calm Calm -- 29.93 in1013.5 mb - 0.00 in0.0 mm 0.00 in0.0 mm
08:20 AM 65.6°F18.7°C 52.2°F11.2°C 62% Calm Calm 1.2 mph1.9 kmh 29.93 in1013.5 mb - 0.00 in0.0 mm 0.00 in0.0 mm
08:30 AM 66.2°F19.0°C 52.8°F11.6°C 62% 4.6 mph SSW7.4 kmh SSW 10.4 mph16.7 kmh 29.93 in1013.5 mb - 0.00 in0.0 mm 0.00 in0.0 mm
08:40 AM 67.1°F19.5°C 52.3°F11.3°C 59% 3.5 mph SSW5.6 kmh SSW 10.4 mph16.7 kmh 29.93 in1013.5 mb - 0.00 in0.0 mm 0.00 in0.0 mm
08:50 AM 67.9°F19.9°C 52.6°F11.4°C 58% 6.9 mph SSW11.1 kmh SSW 12.7 mph20.4 kmh 29.94 in1013.9 mb - 0.00 in0.0 mm 0.00 in0.0 mm
09:00 AM 68.4°F20.2°C 52.1°F11.2°C 56% 5.8 mph SSW9.3 kmh SSW 10.4 mph16.7 kmh 29.94 in1013.9 mb - 0.00 in0.0 mm 0.00 in0.0 mm
09:10 AM 68.8°F20.4°C 52.0°F11.1°C 55% 5.8 mph S9.3 kmh S 9.2 mph14.8 kmh 29.94 in1013.9 mb - 0.00 in0.0 mm 0.00 in0.0 mm
09:20 AM 67.6°F19.8°C 52.8°F11.6°C 59% 4.6 mph S7.4 kmh S 4.6 mph7.4 kmh 29.94 in1013.9 mb - 0.00 in0.0 mm 0.00 in0.0 mm
09:30 AM 69.3°F20.7°C 53.4°F11.9°C 57% 3.5 mph S5.6 kmh S 6.9 mph11.1 kmh 29.94 in1013.9 mb - 0.00 in0.0 mm 0.00 in0.0 mm
09:40 AM 67.2°F19.6°C 51.9°F11.1°C 58% 2.3 mph S3.7 kmh S 3.5 mph5.6 kmh 29.95 in1014.2 mb - 0.00 in0.0 mm 0.00 in0.0 mm
09:50 AM 67.7°F19.8°C 55.0°F12.8°C 64% 4.6 mph S7.4 kmh S 18.4 mph29.6 kmh 29.95 in1014.2 mb - 0.00 in0.0 mm 0.00 in0.0 mm
10:00 AM 68.9°F20.5°C 54.4°F12.4°C 60% 8.1 mph SSW13.0 kmh SSW 12.7 mph20.4 kmh 29.95 in1014.2 mb - 0.00 in0.0 mm 0.00 in0.0 mm
10:10 AM 69.9°F21.1°C 54.9°F12.7°C 59% 4.6 mph SSW7.4 kmh SSW 15.0 mph24.1 kmh 29.95 in1014.2 mb - 0.00 in0.0 mm 0.00 in0.0 mm
10:20 AM 69.9°F21.1°C 55.0°F12.8°C 59% 3.5 mph S5.6 kmh S 16.1 mph25.9 kmh 29.96 in1014.6 mb - 0.00 in0.0 mm 0.00 in0.0 mm
10:30 AM 69.7°F20.9°C 54.8°F12.7°C 59% 10.4 mph S16.7 kmh S 17.3 mph27.8 kmh 29.97 in1014.9 mb - 0.00 in0.0 mm 0.00 in0.0 mm
10:40 AM 70.1°F21.2°C 55.6°F13.1°C 60% 8.1 mph S13.0 kmh S 11.5 mph18.5 kmh 29.97 in1014.9 mb - 0.00 in0.0 mm 0.00 in0.0 mm
10:50 AM 67.7°F19.8°C 54.2°F12.3°C 62% 8.1 mph SSW13.0 kmh SSW 10.4 mph16.7 kmh 29.97 in1014.9 mb - 0.00 in0.0 mm 0.00 in0.0 mm
11:00 AM 68.8°F20.4°C 54.4°F12.4°C 60% 5.8 mph S9.3 kmh S 11.5 mph18.5 kmh 29.97 in1014.9 mb - 0.00 in0.0 mm 0.00 in0.0 mm
11:10 AM 70.7°F21.5°C 55.2°F12.9°C 58% 5.8 mph S9.3 kmh S 11.5 mph18.5 kmh 29.97 in1014.9 mb - 0.00 in0.0 mm 0.00 in0.0 mm
11:20 AM 71.5°F21.9°C 56.0°F13.3°C 58% 4.6 mph SSW7.4 kmh SSW 6.9 mph11.1 kmh 29.96 in1014.6 mb - 0.00 in0.0 mm 0.00 in0.0 mm
11:30 AM 72.1°F22.3°C 54.0°F12.2°C 53% 6.9 mph SSW11.1 kmh SSW 11.5 mph18.5 kmh 29.97 in1014.9 mb - 0.00 in0.0 mm 0.00 in0.0 mm
11:40 AM 70.7°F21.5°C 52.2°F11.2°C 52% 5.8 mph S9.3 kmh S 10.4 mph16.7 kmh 29.97 in1014.9 mb - 0.00 in0.0 mm 0.00 in0.0 mm
11:50 AM 70.1°F21.2°C 54.6°F12.6°C 58% 9.2 mph S14.8 kmh S 12.7 mph20.4 kmh 29.97 in1014.9 mb - 0.00 in0.0 mm 0.00 in0.0 mm
12:00 PM 72.4°F22.4°C 54.8°F12.7°C 54% 4.6 mph S7.4 kmh S 11.5 mph18.5 kmh 29.97 in1014.9 mb - 0.00 in0.0 mm 0.00 in0.0 mm
12:10 PM 71.6°F22.0°C 54.1°F12.3°C 54% 4.6 mph SSW7.4 kmh SSW 9.2 mph14.8 kmh 29.97 in1014.9 mb - 0.00 in0.0 mm 0.00 in0.0 mm
12:20 PM 73.1°F22.8°C 51.6°F10.9°C 47% 4.6 mph S7.4 kmh S 9.2 mph14.8 kmh 29.97 in1014.9 mb - 0.00 in0.0 mm 0.00 in0.0 mm
12:30 PM 71.3°F21.8°C 50.5°F10.3°C 48% 5.8 mph SSE9.3 kmh SSE 8.1 mph13.0 kmh 29.97 in1014.9 mb - 0.00 in0.0 mm 0.00 in0.0 mm
12:40 PM 71.3°F21.8°C 52.8°F11.6°C 52% 2.3 mph ESE3.7 kmh ESE 5.8 mph9.3 kmh 29.97 in1014.9 mb - 0.00 in0.0 mm 0.00 in0.0 mm
12:50 PM 69.4°F20.8°C 54.0°F12.2°C 58% 4.6 mph ESE7.4 kmh ESE 10.4 mph16.7 kmh 29.97 in1014.9 mb - 0.00 in0.0 mm 0.00 in0.0 mm
01:00 PM 69.9°F21.1°C 54.0°F12.2°C 57% 4.6 mph ENE7.4 kmh ENE 9.2 mph14.8 kmh 29.97 in1014.9 mb - 0.00 in0.0 mm 0.00 in0.0 mm
01:10 PM 69.0°F20.6°C 52.2°F11.2°C 55% 3.5 mph ENE5.6 kmh ENE 4.6 mph7.4 kmh 29.97 in1014.9 mb - 0.00 in0.0 mm 0.00 in0.0 mm
01:20 PM 70.2°F21.2°C 52.8°F11.6°C 54% 1.2 mph E1.9 kmh E 10.4 mph16.7 kmh 29.97 in1014.9 mb - 0.00 in0.0 mm 0.00 in0.0 mm
01:30 PM 68.9°F20.5°C 52.6°F11.4°C 56% Calm Calm -- 29.97 in1014.9 mb - 0.00 in0.0 mm 0.00 in0.0 mm
01:40 PM 67.8°F19.9°C 51.5°F10.8°C 56% 5.8 mph E9.3 kmh E 10.4 mph16.7 kmh 29.98 in1015.2 mb - 0.00 in0.0 mm 0.00 in0.0 mm
01:50 PM 67.7°F19.8°C 51.0°F10.6°C 55% 4.6 mph ENE7.4 kmh ENE 11.5 mph18.5 kmh 29.98 in1015.2 mb - 0.00 in0.0 mm 0.00 in0.0 mm
02:00 PM 69.0°F20.6°C 51.7°F10.9°C 54% 3.5 mph ENE5.6 kmh ENE 8.1 mph13.0 kmh 29.98 in1015.2 mb - 0.00 in0.0 mm 0.00 in0.0 mm
02:10 PM 68.3°F20.2°C 52.0°F11.1°C 56% 4.6 mph E7.4 kmh E 6.9 mph11.1 kmh 29.98 in1015.2 mb - 0.00 in0.0 mm 0.00 in0.0 mm
02:20 PM 68.1°F20.1°C 51.3°F10.7°C 55% 4.6 mph E7.4 kmh E 6.9 mph11.1 kmh 29.98 in1015.2 mb - 0.00 in0.0 mm 0.00 in0.0 mm
02:30 PM 67.7°F19.8°C 51.4°F10.8°C 56% 5.8 mph ENE9.3 kmh ENE 10.4 mph16.7 kmh 29.98 in1015.2 mb - 0.00 in0.0 mm 0.00 in0.0 mm
02:40 PM 70.6°F21.4°C 52.6°F11.4°C 53% 4.6 mph E7.4 kmh E 8.1 mph13.0 kmh 29.98 in1015.2 mb - 0.00 in0.0 mm 0.00 in0.0 mm
02:50 PM 68.4°F20.2°C 50.6°F10.3°C 53% 5.8 mph E9.3 kmh E 6.9 mph11.1 kmh 29.98 in1015.2 mb - 0.00 in0.0 mm 0.00 in0.0 mm
03:00 PM 68.2°F20.1°C 50.9°F10.5°C 54% 6.9 mph NE11.1 kmh NE 11.5 mph18.5 kmh 29.99 in1015.6 mb - 0.00 in0.0 mm 0.00 in0.0 mm
03:10 PM 67.1°F19.5°C 50.9°F10.5°C 56% 5.8 mph E9.3 kmh E 10.4 mph16.7 kmh 29.99 in1015.6 mb - 0.00 in0.0 mm 0.00 in0.0 mm
03:20 PM 65.8°F18.8°C 49.1°F9.5°C 55% 9.2 mph ENE14.8 kmh ENE 12.7 mph20.4 kmh 29.99 in1015.6 mb - 0.00 in0.0 mm 0.00 in0.0 mm
03:30 PM 66.5°F19.2°C 50.3°F10.2°C 56% 10.4 mph NE16.7 kmh NE 11.5 mph18.5 kmh 29.99 in1015.6 mb - 0.00 in0.0 mm 0.00 in0.0 mm
03:40 PM 66.1°F18.9°C 49.4°F9.7°C 55% 6.9 mph E11.1 kmh E 12.7 mph20.4 kmh 29.99 in1015.6 mb - 0.00 in0.0 mm 0.00 in0.0 mm
03:50 PM 65.9°F18.8°C 49.8°F9.9°C 56% 6.9 mph ENE11.1 kmh ENE 13.8 mph22.2 kmh 29.99 in1015.6 mb - 0.00 in0.0 mm 0.00 in0.0 mm
04:00 PM 65.1°F18.4°C 49.4°F9.7°C 57% 8.1 mph ENE13.0 kmh ENE 13.8 mph22.2 kmh 29.99 in1015.6 mb - 0.00 in0.0 mm 0.00 in0.0 mm
04:10 PM 64.5°F18.1°C 48.9°F9.4°C 57% 8.1 mph ENE13.0 kmh ENE 11.5 mph18.5 kmh 29.99 in1015.6 mb - 0.00 in0.0 mm 0.00 in0.0 mm
04:20 PM 64.0°F17.8°C 48.5°F9.2°C 57% 10.4 mph ENE16.7 kmh ENE 12.7 mph20.4 kmh 30.00 in1015.9 mb - 0.00 in0.0 mm 0.00 in0.0 mm
04:30 PM 63.8°F17.7°C 48.3°F9.1°C 57% 6.9 mph ENE11.1 kmh ENE 9.2 mph14.8 kmh 30.00 in1015.9 mb - 0.00 in0.0 mm 0.00 in0.0 mm
04:40 PM 63.8°F17.7°C 48.3°F9.1°C 57% 9.2 mph NE14.8 kmh NE 13.8 mph22.2 kmh 30.00 in1015.9 mb - 0.00 in0.0 mm 0.00 in0.0 mm
04:50 PM 63.6°F17.6°C 48.5°F9.2°C 58% 5.8 mph ENE9.3 kmh ENE 13.8 mph22.2 kmh 30.00 in1015.9 mb - 0.00 in0.0 mm 0.00 in0.0 mm
05:00 PM 63.3°F17.4°C 48.3°F9.1°C 58% 6.9 mph E11.1 kmh E 10.4 mph16.7 kmh 30.00 in1015.9 mb - 0.00 in0.0 mm 0.00 in0.0 mm
05:10 PM 63.1°F17.3°C 48.6°F9.2°C 59% 4.6 mph E7.4 kmh E 5.8 mph9.3 kmh 30.00 in1015.9 mb - 0.00 in0.0 mm 0.00 in0.0 mm
05:20 PM 63.1°F17.3°C 49.0°F9.4°C 60% 9.2 mph ENE14.8 kmh ENE 11.5 mph18.5 kmh 30.00 in1015.9 mb - 0.00 in0.0 mm 0.00 in0.0 mm
05:30 PM 62.8°F17.1°C 48.7°F9.3°C 60% 6.9 mph ESE11.1 kmh ESE 11.5 mph18.5 kmh 30.01 in1016.3 mb - 0.00 in0.0 mm 0.00 in0.0 mm
05:40 PM 62.5°F16.9°C 48.4°F9.1°C 60% 4.6 mph E7.4 kmh E 8.1 mph13.0 kmh 30.01 in1016.3 mb - 0.00 in0.0 mm 0.00 in0.0 mm
05:50 PM 62.1°F16.7°C 47.6°F8.7°C 59% 6.9 mph ENE11.1 kmh ENE 11.5 mph18.5 kmh 30.02 in1016.6 mb - 0.00 in0.0 mm 0.00 in0.0 mm
06:00 PM 61.5°F16.4°C 47.0°F8.3°C 59% 4.6 mph ENE7.4 kmh ENE 6.9 mph11.1 kmh 30.02 in1016.6 mb - 0.00 in0.0 mm 0.00 in0.0 mm
06:10 PM 60.8°F16.0°C 45.5°F7.5°C 57% 8.1 mph NE13.0 kmh NE 11.5 mph18.5 kmh 30.02 in1016.6 mb - 0.00 in0.0 mm 0.00 in0.0 mm
06:20 PM 60.2°F15.7°C 44.9°F7.2°C 57% 4.6 mph NE7.4 kmh NE 11.5 mph18.5 kmh 30.03 in1016.9 mb - 0.00 in0.0 mm 0.00 in0.0 mm
06:30 PM 59.9°F15.5°C 45.1°F7.3°C 58% 4.6 mph E7.4 kmh E 8.1 mph13.0 kmh 30.03 in1016.9 mb - 0.00 in0.0 mm 0.00 in0.0 mm
06:40 PM 59.7°F15.4°C 45.3°F7.4°C 59% 3.5 mph E5.6 kmh E 12.7 mph20.4 kmh 30.04 in1017.3 mb - 0.00 in0.0 mm 0.00 in0.0 mm
06:50 PM 59.4°F15.2°C 44.6°F7.0°C 58% 3.5 mph E5.6 kmh E 3.5 mph5.6 kmh 30.05 in1017.6 mb - 0.00 in0.0 mm 0.00 in0.0 mm
07:00 PM 59.0°F15.0°C 44.2°F6.8°C 58% 4.6 mph NE7.4 kmh NE 6.9 mph11.1 kmh 30.05 in1017.6 mb - 0.00 in0.0 mm 0.00 in0.0 mm
07:10 PM 58.6°F14.8°C 44.3°F6.8°C 59% 3.5 mph E5.6 kmh E 11.5 mph18.5 kmh 30.05 in1017.6 mb - 0.00 in0.0 mm 0.00 in0.0 mm
07:20 PM 58.3°F14.6°C 44.5°F6.9°C 60% 5.8 mph E9.3 kmh E 9.2 mph14.8 kmh 30.06 in1017.9 mb - 0.00 in0.0 mm 0.00 in0.0 mm
07:30 PM 58.0°F14.4°C 44.6°F7.0°C 61% 2.3 mph ENE3.7 kmh ENE 5.8 mph9.3 kmh 30.06 in1017.9 mb - 0.00 in0.0 mm 0.00 in0.0 mm
07:40 PM 57.6°F14.2°C 44.3°F6.8°C 61% 4.6 mph ENE7.4 kmh ENE 8.1 mph13.0 kmh 30.07 in1018.3 mb - 0.00 in0.0 mm 0.00 in0.0 mm
07:50 PM 57.2°F14.0°C 44.3°F6.8°C 62% 3.5 mph ENE5.6 kmh ENE 4.6 mph7.4 kmh 30.07 in1018.3 mb - 0.00 in0.0 mm 0.00 in0.0 mm
08:00 PM 57.0°F13.9°C 44.1°F6.7°C 62% 3.5 mph ENE5.6 kmh ENE 4.6 mph7.4 kmh 30.07 in1018.3 mb - 0.00 in0.0 mm 0.00 in0.0 mm
08:10 PM 56.8°F13.8°C 44.3°F6.8°C 63% Calm Calm -- 30.08 in1018.6 mb - 0.00 in0.0 mm 0.00 in0.0 mm
08:20 PM 56.5°F13.6°C 44.1°F6.7°C 63% Calm Calm -- 30.08 in1018.6 mb - 0.00 in0.0 mm 0.00 in0.0 mm
08:30 PM 56.3°F13.5°C 44.3°F6.8°C 64% Calm Calm -- 30.08 in1018.6 mb - 0.00 in0.0 mm 0.00 in0.0 mm
08:40 PM 56.1°F13.4°C 44.1°F6.7°C 64% Calm Calm -- 30.08 in1018.6 mb - 0.00 in0.0 mm 0.00 in0.0 mm
08:50 PM 55.8°F13.2°C 43.8°F6.6°C 64% Calm Calm -- 30.08 in1018.6 mb - 0.00 in0.0 mm 0.00 in0.0 mm
09:00 PM 55.5°F13.1°C 43.9°F6.6°C 65% Calm Calm -- 30.09 in1019.0 mb - 0.00 in0.0 mm 0.00 in0.0 mm
09:10 PM 55.2°F12.9°C 43.6°F6.4°C 65% Calm Calm -- 30.09 in1019.0 mb - 0.00 in0.0 mm 0.00 in0.0 mm
09:20 PM 54.9°F12.7°C 43.8°F6.6°C 66% Calm Calm -- 30.09 in1019.0 mb - 0.00 in0.0 mm 0.00 in0.0 mm
09:30 PM 54.6°F12.6°C 43.5°F6.4°C 66% Calm Calm -- 30.09 in1019.0 mb - 0.00 in0.0 mm 0.00 in0.0 mm
09:40 PM 54.4°F12.4°C 43.6°F6.4°C 67% Calm Calm -- 30.09 in1019.0 mb - 0.00 in0.0 mm 0.00 in0.0 mm
09:50 PM 54.1°F12.3°C 43.4°F6.3°C 67% Calm Calm -- 30.09 in1019.0 mb - 0.00 in0.0 mm 0.00 in0.0 mm
10:00 PM 53.8°F12.1°C 43.5°F6.4°C 68% Calm Calm -- 30.09 in1019.0 mb - 0.00 in0.0 mm 0.00 in0.0 mm
10:10 PM 53.5°F11.9°C 43.2°F6.2°C 68% Calm Calm -- 30.09 in1019.0 mb - 0.00 in0.0 mm 0.00 in0.0 mm
10:20 PM 53.2°F11.8°C 43.3°F6.3°C 69% Calm Calm -- 30.09 in1019.0 mb - 0.00 in0.0 mm 0.00 in0.0 mm
10:30 PM 52.9°F11.6°C 43.0°F6.1°C 69% Calm Calm -- 30.09 in1019.0 mb - 0.00 in0.0 mm 0.00 in0.0 mm
10:40 PM 52.6°F11.4°C 42.7°F5.9°C 69% Calm Calm -- 30.09 in1019.0 mb - 0.00 in0.0 mm 0.00 in0.0 mm
10:50 PM 52.3°F11.3°C 42.8°F6.0°C 70% Calm Calm -- 30.09 in1019.0 mb - 0.00 in0.0 mm 0.00 in0.0 mm
11:00 PM 52.1°F11.2°C 43.0°F6.1°C 71% Calm Calm -- 30.10 in1019.3 mb - 0.00 in0.0 mm 0.00 in0.0 mm
11:10 PM 51.9°F11.1°C 42.7°F5.9°C 71% Calm Calm -- 30.10 in1019.3 mb - 0.00 in0.0 mm 0.00 in0.0 mm
11:20 PM 51.6°F10.9°C 42.9°F6.1°C 72% Calm Calm -- 30.09 in1019.0 mb - 0.00 in0.0 mm 0.00 in0.0 mm
11:30 PM 51.3°F10.7°C 42.6°F5.9°C 72% Calm Calm -- 30.09 in1019.0 mb - 0.00 in0.0 mm 0.00 in0.0 mm
11:40 PM 51.0°F10.6°C 42.3°F5.7°C 72% Calm Calm -- 30.09 in1019.0 mb - 0.00 in0.0 mm 0.00 in0.0 mm
11:50 PM 50.7°F10.4°C 42.0°F5.6°C 72% Calm Calm -- 30.09 in1019.0 mb - 0.00 in0.0 mm 0.00 in0.0 mm